Terminal Aerodrome Forecast
Issued by NWS Paducah, KY

Home | Current Version | Previous Version | Text Only | Print | Product List | Glossary On
Versions: 1 2 3 4 5 6 7 8 9 10 11 12 13 14 15 16 17 18 19 20 21
000
FTUS43 KPAH 022320
TAFEVV
TAF
KEVV 022320Z 0300/0324 VRB03KT P6SM SCT025
      TEMPO 0300/0302 OVC025
     FM030900 00000KT 4SM BR SCT020
     FM031300 04004KT P6SM SCT040=

USA.gov is the U.S. government's official web portal to all federal, state and local government web resources and services.